createdAt,value
2023-05-06T00:08:00.206Z,1001.02
2023-05-06T00:18:06.427Z,1001.18
2023-05-06T00:28:12.577Z,1001.21
2023-05-06T00:38:18.861Z,1001.26
2023-05-06T00:48:24.749Z,1001.33
2023-05-06T00:58:31.090Z,1001.36
2023-05-06T01:08:37.970Z,1001.33
2023-05-06T01:18:45.042Z,1000.98
2023-05-06T01:28:51.372Z,1000.88
2023-05-06T01:38:57.785Z,1001.04
2023-05-06T01:49:04.332Z,1001.05
2023-05-06T01:59:10.367Z,1001.07
2023-05-06T02:09:16.052Z,1001.15
2023-05-06T02:19:21.814Z,1001.08
2023-05-06T02:29:27.528Z,1001.00
2023-05-06T02:39:33.149Z,1000.97
2023-05-06T02:49:38.819Z,1000.97
2023-05-06T02:59:45.594Z,1001.04
2023-05-06T03:09:51.483Z,1001.07
2023-05-06T03:19:56.685Z,1001.11
2023-05-06T03:30:02.011Z,1001.08
2023-05-06T03:40:07.186Z,1001.17
2023-05-06T03:50:12.637Z,1001.30
2023-05-06T04:00:18.426Z,1001.42
2023-05-06T04:10:24.045Z,1001.45
2023-05-06T04:20:30.015Z,1001.63
2023-05-06T04:30:36.034Z,1001.66
2023-05-06T04:40:41.521Z,1001.76
2023-05-06T04:50:47.031Z,1001.93
2023-05-06T05:00:52.767Z,1001.97
2023-05-06T05:10:58.800Z,1002.11
2023-05-06T05:31:10.658Z,1002.18
2023-05-06T05:41:17.726Z,1002.15
2023-05-06T05:51:23.380Z,1002.16
2023-05-06T06:01:28.775Z,1002.28
2023-05-06T06:11:34.090Z,1002.38
2023-05-06T06:21:40.034Z,1002.38
2023-05-06T06:31:45.741Z,1002.49
2023-05-06T06:41:51.408Z,1002.59
2023-05-06T06:51:56.497Z,1002.59
2023-05-06T07:02:01.805Z,1002.61
2023-05-06T07:12:07.518Z,1002.52
2023-05-06T07:22:13.031Z,1002.68
2023-05-06T07:32:18.367Z,1002.69
2023-05-06T07:42:24.116Z,1002.76
2023-05-06T07:52:30.080Z,1002.83
2023-05-06T08:02:36.009Z,1002.93
2023-05-06T08:12:41.290Z,1002.95
2023-05-06T08:22:47.080Z,1002.93
2023-05-06T08:32:52.733Z,1003.07
2023-05-06T08:42:58.450Z,1003.04
2023-05-06T08:53:03.637Z,1003.03
2023-05-06T09:03:09.443Z,1003.04
2023-05-06T09:13:15.088Z,1002.92
2023-05-06T09:23:20.422Z,1002.91
2023-05-06T09:33:26.144Z,1002.85
2023-05-06T09:43:32.324Z,1002.80
2023-05-06T09:53:37.943Z,1002.83
2023-05-06T10:03:43.893Z,1002.84
2023-05-06T10:13:49.554Z,1002.83
2023-05-06T10:23:55.566Z,1002.77
2023-05-06T10:34:01.320Z,1002.74
2023-05-06T10:44:07.062Z,1002.56
2023-05-06T10:54:12.383Z,1002.55
2023-05-06T11:04:18.005Z,1002.55
2023-05-06T11:14:23.773Z,1002.50
2023-05-06T11:24:29.209Z,1002.54
2023-05-06T11:34:35.063Z,1002.65
2023-05-06T11:44:40.632Z,1002.73
2023-05-06T11:54:46.800Z,1002.65
2023-05-06T12:04:53.426Z,1002.66
2023-05-06T12:14:58.864Z,1002.80
2023-05-06T12:25:04.390Z,1002.74
2023-05-06T12:35:10.000Z,1002.68
2023-05-06T12:45:15.530Z,1002.72
2023-05-06T12:55:21.500Z,1002.69
2023-05-06T13:05:27.343Z,1002.56
2023-05-06T13:15:33.707Z,1002.51
2023-05-06T13:25:48.192Z,1002.49
2023-05-06T13:35:49.683Z,1002.54
2023-05-06T13:45:55.521Z,1002.56
2023-05-06T13:56:01.046Z,1002.55
2023-05-06T14:06:06.596Z,1002.46
2023-05-06T14:16:11.930Z,1002.36
2023-05-06T14:26:17.816Z,1002.36
2023-05-06T14:36:23.341Z,1002.32
2023-05-06T14:46:29.717Z,1002.26
2023-05-06T14:56:35.196Z,1002.32
2023-05-06T15:06:40.875Z,1002.35
2023-05-06T15:16:46.446Z,1002.34
2023-05-06T15:26:51.965Z,1002.40
2023-05-06T15:36:57.697Z,1002.39
2023-05-06T15:47:03.675Z,1002.38
2023-05-06T15:57:09.442Z,1002.51
2023-05-06T16:07:15.525Z,1002.61
2023-05-06T16:17:20.687Z,1002.54
2023-05-06T16:27:26.108Z,1002.60
2023-05-06T16:37:31.785Z,1002.58
2023-05-06T16:47:37.456Z,1002.59
2023-05-06T16:57:43.095Z,1002.47
2023-05-06T17:07:49.155Z,1002.56
2023-05-06T17:17:55.926Z,1002.57
2023-05-06T17:28:02.141Z,1002.57
2023-05-06T17:38:08.342Z,1002.58
2023-05-06T17:48:14.243Z,1002.60
2023-05-06T17:58:19.821Z,1002.79
2023-05-06T18:08:25.141Z,1002.92
2023-05-06T18:18:30.706Z,1002.98
2023-05-06T18:28:36.119Z,1003.11
2023-05-06T18:38:42.135Z,1003.16
2023-05-06T18:48:47.361Z,1003.23
2023-05-06T18:58:53.053Z,1003.41
2023-05-06T19:08:59.019Z,1003.46
2023-05-06T19:19:05.710Z,1003.58
2023-05-06T19:29:11.089Z,1003.79
2023-05-06T19:39:17.995Z,1003.81
2023-05-06T19:49:24.377Z,1003.83
2023-05-06T19:59:30.264Z,1003.85
2023-05-06T20:09:35.613Z,1004.07
2023-05-06T20:21:00.209Z,1004.22
2023-05-06T20:31:04.280Z,1004.29
2023-05-06T20:41:09.994Z,1004.47
2023-05-06T20:51:16.532Z,1004.51
2023-05-06T21:01:22.208Z,1004.55
2023-05-06T21:11:29.044Z,1004.57
2023-05-06T21:21:34.973Z,1004.64
2023-05-06T21:31:40.891Z,1004.66
2023-05-06T21:41:46.254Z,1004.74
2023-05-06T21:51:51.973Z,1004.75
2023-05-06T22:01:58.030Z,1004.71
2023-05-06T22:12:04.238Z,1004.79
2023-05-06T22:22:09.626Z,1004.79
2023-05-06T22:32:15.172Z,1004.77
2023-05-06T22:42:20.925Z,1004.80
2023-05-06T22:52:26.655Z,1004.82
2023-05-06T23:02:32.176Z,1004.78
2023-05-06T23:12:38.187Z,1004.66
2023-05-06T23:22:43.580Z,1004.61
2023-05-06T23:32:49.430Z,1004.59
2023-05-06T23:42:54.992Z,1004.69
2023-05-06T23:53:00.463Z,1004.68
